createdAt,value
2019-02-11T00:01:13.033Z,5.22
2019-02-11T00:03:42.393Z,5.23
2019-02-11T00:06:12.370Z,5.26
2019-02-11T00:08:41.305Z,5.30
2019-02-11T00:11:10.108Z,5.33
2019-02-11T00:13:39.549Z,5.35
2019-02-11T00:16:08.443Z,5.36
2019-02-11T00:18:37.250Z,5.36
2019-02-11T00:21:06.035Z,5.35
2019-02-11T00:23:34.826Z,5.33
2019-02-11T00:26:03.644Z,5.32
2019-02-11T00:28:32.487Z,5.33
2019-02-11T00:31:01.289Z,5.32
2019-02-11T00:33:30.225Z,5.31
2019-02-11T00:35:59.032Z,5.32
2019-02-11T00:38:27.871Z,5.30
2019-02-11T00:40:56.722Z,5.29
2019-02-11T00:43:25.507Z,5.30
2019-02-11T00:45:54.284Z,5.28
2019-02-11T00:48:23.122Z,5.26
2019-02-11T00:50:51.995Z,5.23
2019-02-11T00:53:20.775Z,5.21
2019-02-11T00:55:50.558Z,5.18
2019-02-11T00:58:19.352Z,5.14
2019-02-11T01:00:48.131Z,5.12
2019-02-11T01:03:17.503Z,5.09
2019-02-11T01:05:47.011Z,5.08
2019-02-11T01:08:15.870Z,5.05
2019-02-11T01:10:44.784Z,5.03
2019-02-11T01:13:14.030Z,5.02
2019-02-11T01:15:42.830Z,5.03
2019-02-11T01:18:11.601Z,5.04
2019-02-11T01:20:41.756Z,5.03
2019-02-11T01:23:10.579Z,4.98
2019-02-11T01:25:39.400Z,4.95
2019-02-11T01:28:08.976Z,4.91
2019-02-11T01:30:39.175Z,4.88
2019-02-11T01:33:09.768Z,4.86
2019-02-11T01:35:38.550Z,4.87
2019-02-11T01:38:07.434Z,4.87
2019-02-11T01:40:36.204Z,4.88
2019-02-11T01:43:05.034Z,4.90
2019-02-11T01:45:33.828Z,4.90
2019-02-11T01:48:03.126Z,4.93
2019-02-11T01:50:31.930Z,4.92
2019-02-11T01:53:01.533Z,4.93
2019-02-11T01:55:30.349Z,4.92
2019-02-11T01:58:01.069Z,4.89
2019-02-11T02:00:29.887Z,4.86
2019-02-11T02:02:58.690Z,4.81
2019-02-11T02:05:27.468Z,4.77
2019-02-11T02:07:56.362Z,4.75
2019-02-11T02:10:25.136Z,4.75
2019-02-11T02:12:53.964Z,4.74
2019-02-11T02:15:22.728Z,4.70
2019-02-11T02:17:51.544Z,4.64
2019-02-11T02:20:23.406Z,4.58
2019-02-11T02:22:52.271Z,4.55
2019-02-11T02:25:21.075Z,4.49
2019-02-11T02:27:49.859Z,4.49
2019-02-11T02:30:18.653Z,4.51
2019-02-11T02:32:47.526Z,4.52
2019-02-11T02:35:16.471Z,4.50
2019-02-11T02:37:45.337Z,4.48
2019-02-11T02:40:14.136Z,4.47
2019-02-11T02:42:42.887Z,4.45
2019-02-11T02:45:11.676Z,4.44
2019-02-11T02:47:40.487Z,4.46
2019-02-11T02:50:10.138Z,4.47
2019-02-11T02:52:38.985Z,4.48
2019-02-11T02:55:08.091Z,4.49
2019-02-11T02:57:36.880Z,4.51
2019-02-11T03:00:06.998Z,4.53
2019-02-11T03:02:35.834Z,4.53
2019-02-11T03:05:05.145Z,4.51
2019-02-11T03:07:33.930Z,4.48
2019-02-11T03:10:02.717Z,4.48
2019-02-11T03:12:31.534Z,4.47
2019-02-11T03:15:00.346Z,4.45
2019-02-11T03:17:29.118Z,4.43
2019-02-11T03:19:58.016Z,4.41
2019-02-11T03:22:26.799Z,4.40
2019-02-11T03:24:55.572Z,4.38
2019-02-11T03:27:25.293Z,4.36
2019-02-11T03:29:54.423Z,4.33
2019-02-11T03:32:23.286Z,4.33
2019-02-11T03:34:52.118Z,4.35
2019-02-11T03:37:20.941Z,4.38
2019-02-11T03:39:49.727Z,4.45
2019-02-11T03:42:18.725Z,4.49
2019-02-11T03:44:48.050Z,4.54
2019-02-11T03:47:16.850Z,4.59
2019-02-11T03:49:45.750Z,4.63
2019-02-11T03:52:14.600Z,4.66
2019-02-11T03:54:43.396Z,4.68
2019-02-11T03:57:12.195Z,4.70
2019-02-11T03:59:40.977Z,4.72
2019-02-11T04:02:09.773Z,4.75
2019-02-11T04:04:39.499Z,4.79
2019-02-11T04:07:08.403Z,4.80
2019-02-11T04:09:37.190Z,4.82
2019-02-11T04:12:05.959Z,4.85
2019-02-11T04:14:35.737Z,4.88
2019-02-11T04:17:05.470Z,4.90
2019-02-11T04:19:35.413Z,4.89
2019-02-11T04:22:08.362Z,4.84
2019-02-11T04:24:37.610Z,4.81
2019-02-11T04:27:06.724Z,4.77
2019-02-11T04:29:35.620Z,4.73
2019-02-11T04:32:05.459Z,4.67
2019-02-11T04:34:34.244Z,4.62
2019-02-11T04:37:03.016Z,4.59
2019-02-11T04:39:31.852Z,4.59
2019-02-11T04:42:00.744Z,4.62
2019-02-11T04:44:33.928Z,4.63
2019-02-11T04:46:58.477Z,4.59
2019-02-11T04:49:27.747Z,4.55
2019-02-11T04:51:58.890Z,4.47
2019-02-11T04:54:32.639Z,4.41
2019-02-11T04:57:04.870Z,4.35
2019-02-11T04:59:33.741Z,4.30
2019-02-11T05:02:02.546Z,4.24
2019-02-11T05:04:31.375Z,4.19
2019-02-11T05:07:00.189Z,4.20
2019-02-11T05:09:29.479Z,4.25
2019-02-11T05:11:58.300Z,4.27
2019-02-11T05:14:27.092Z,4.25
2019-02-11T05:16:55.893Z,4.24
2019-02-11T05:19:25.121Z,4.23
2019-02-11T05:21:54.246Z,4.23
2019-02-11T05:24:23.023Z,4.21
2019-02-11T05:26:51.798Z,4.19
2019-02-11T05:29:21.209Z,4.21
2019-02-11T05:31:49.991Z,4.23
2019-02-11T05:34:19.422Z,4.21
2019-02-11T05:36:48.234Z,4.17
2019-02-11T05:39:18.124Z,4.11
2019-02-11T05:41:46.906Z,4.03
2019-02-11T05:44:15.772Z,3.99
2019-02-11T05:46:44.531Z,3.95
2019-02-11T05:49:13.306Z,3.92
2019-02-11T05:51:42.683Z,3.89
2019-02-11T05:54:11.476Z,3.86
2019-02-11T05:56:40.253Z,3.83
2019-02-11T05:59:09.057Z,3.82
2019-02-11T06:01:37.823Z,3.83
2019-02-11T06:04:06.678Z,3.83
2019-02-11T06:06:36.688Z,3.81
2019-02-11T06:09:06.232Z,3.80
2019-02-11T06:11:35.003Z,3.80
2019-02-11T06:14:03.836Z,3.78
2019-02-11T06:16:32.669Z,3.76
2019-02-11T06:19:02.679Z,3.73
2019-02-11T06:21:32.714Z,3.74
2019-02-11T06:24:01.464Z,3.78
2019-02-11T06:26:32.161Z,3.81
2019-02-11T06:29:02.048Z,3.84
2019-02-11T06:31:30.880Z,3.81
2019-02-11T06:33:59.649Z,3.78
2019-02-11T06:36:28.471Z,3.77
2019-02-11T06:38:58.092Z,3.74
2019-02-11T06:41:26.850Z,3.73
2019-02-11T06:43:55.645Z,3.70
2019-02-11T06:46:24.406Z,3.69
2019-02-11T06:48:53.238Z,3.67
2019-02-11T06:51:22.022Z,3.65
2019-02-11T06:53:50.822Z,3.63
2019-02-11T06:56:19.627Z,3.60
2019-02-11T06:58:49.419Z,3.58
2019-02-11T07:01:21.247Z,3.56
2019-02-11T07:03:50.023Z,3.56
2019-02-11T07:06:18.803Z,3.53
2019-02-11T07:08:47.729Z,3.51
2019-02-11T07:11:16.513Z,3.50
2019-02-11T07:13:45.428Z,3.51
2019-02-11T07:16:14.297Z,3.48
2019-02-11T07:18:43.069Z,3.50
2019-02-11T07:21:11.920Z,3.50
2019-02-11T07:23:40.731Z,3.51
2019-02-11T07:26:10.257Z,3.51
2019-02-11T07:28:39.083Z,3.53
2019-02-11T07:31:07.871Z,3.54
2019-02-11T07:33:37.005Z,3.55
2019-02-11T07:36:05.892Z,3.59
2019-02-11T07:38:34.709Z,3.60
2019-02-11T07:41:04.346Z,3.62
2019-02-11T07:43:38.599Z,3.65
2019-02-11T07:46:15.219Z,3.68
2019-02-11T07:48:44.018Z,3.72
2019-02-11T07:51:14.362Z,3.75
2019-02-11T07:53:43.167Z,3.78
2019-02-11T07:56:12.101Z,3.83
2019-02-11T07:58:41.150Z,3.87
2019-02-11T08:01:09.978Z,3.91
2019-02-11T08:03:38.779Z,3.96
2019-02-11T08:06:09.228Z,4.02
2019-02-11T08:08:38.026Z,4.07
2019-02-11T08:11:06.819Z,4.13
2019-02-11T08:13:35.907Z,4.18
2019-02-11T08:16:07.550Z,4.24
2019-02-11T08:18:37.598Z,4.29
2019-02-11T08:21:08.016Z,4.37
2019-02-11T08:23:39.064Z,4.42
2019-02-11T08:26:07.827Z,4.48
2019-02-11T08:28:37.328Z,4.55
2019-02-11T08:31:06.125Z,4.62
2019-02-11T08:33:35.572Z,4.71
2019-02-11T08:36:04.395Z,4.81
2019-02-11T08:38:33.182Z,4.95
2019-02-11T08:41:01.984Z,5.08
2019-02-11T08:43:31.146Z,5.26
2019-02-11T08:45:59.924Z,5.43
2019-02-11T08:48:29.719Z,5.60
2019-02-11T08:50:58.507Z,5.72
2019-02-11T08:53:27.311Z,5.76
2019-02-11T08:55:56.092Z,5.80
2019-02-11T08:58:24.866Z,5.93
2019-02-11T09:00:54.943Z,6.26
2019-02-11T09:03:23.749Z,6.52
2019-02-11T09:05:52.548Z,6.67
2019-02-11T09:08:21.630Z,6.75
2019-02-11T09:10:50.420Z,6.69
2019-02-11T09:13:19.853Z,6.64
2019-02-11T09:15:55.180Z,6.62
2019-02-11T09:18:18.130Z,6.53
2019-02-11T09:20:46.984Z,6.55
2019-02-11T09:23:16.605Z,6.75
2019-02-11T09:25:47.397Z,6.90
2019-02-11T09:28:17.042Z,6.95
2019-02-11T09:30:45.843Z,7.02
2019-02-11T09:33:18.179Z,7.11
2019-02-11T09:35:46.972Z,7.18
2019-02-11T09:38:15.854Z,7.25
2019-02-11T09:40:45.606Z,7.34
2019-02-11T09:43:15.699Z,7.31
2019-02-11T09:45:44.541Z,7.21
2019-02-11T09:48:13.411Z,7.10
2019-02-11T09:50:44.495Z,7.04
2019-02-11T09:53:13.331Z,6.97
2019-02-11T09:55:42.110Z,6.92
2019-02-11T09:58:10.971Z,6.86
2019-02-11T10:00:39.748Z,6.82
2019-02-11T10:03:08.587Z,6.81
2019-02-11T10:05:37.399Z,6.80
2019-02-11T10:08:06.175Z,6.82
2019-02-11T10:10:35.947Z,6.86
2019-02-11T10:13:05.739Z,6.88
2019-02-11T10:15:34.631Z,6.94
2019-02-11T10:18:03.440Z,7.20
2019-02-11T10:20:33.333Z,7.35
2019-02-11T10:23:02.928Z,7.43
2019-02-11T10:25:31.719Z,7.56
2019-02-11T10:28:03.253Z,7.80
2019-02-11T10:30:32.070Z,8.11
2019-02-11T10:33:01.976Z,8.37
2019-02-11T10:35:30.760Z,8.65
2019-02-11T10:38:00.190Z,8.67
2019-02-11T10:40:28.955Z,8.79
2019-02-11T10:42:57.755Z,9.12
2019-02-11T10:45:36.266Z,9.42
2019-02-11T10:47:58.092Z,9.60
2019-02-11T10:50:26.902Z,9.82
2019-02-11T10:52:56.844Z,10.22
2019-02-11T10:55:25.628Z,10.50
2019-02-11T10:57:55.185Z,10.45
2019-02-11T11:00:24.000Z,10.48
2019-02-11T11:02:52.814Z,10.54
2019-02-11T11:05:21.951Z,10.60
2019-02-11T11:07:51.848Z,10.71
2019-02-11T11:10:24.094Z,10.93
2019-02-11T11:12:52.930Z,11.14
2019-02-11T11:15:21.776Z,11.24
2019-02-11T11:17:50.562Z,11.46
2019-02-11T11:20:19.390Z,11.44
2019-02-11T11:22:48.242Z,11.16
2019-02-11T11:25:18.108Z,10.98
2019-02-11T11:27:47.381Z,10.84
2019-02-11T11:30:16.316Z,10.84
2019-02-11T11:32:45.102Z,10.95
2019-02-11T11:35:14.293Z,11.16
2019-02-11T11:37:43.104Z,11.14
2019-02-11T11:40:13.549Z,10.98
2019-02-11T11:42:42.322Z,10.76
2019-02-11T11:45:13.733Z,10.40
2019-02-11T11:47:42.551Z,9.88
2019-02-11T11:50:11.380Z,9.41
2019-02-11T11:52:40.158Z,9.06
2019-02-11T11:55:10.131Z,8.95
2019-02-11T11:57:38.914Z,8.76
2019-02-11T12:00:22.462Z,8.75
2019-02-11T12:03:01.668Z,8.74
2019-02-11T12:05:20.381Z,8.71
2019-02-11T12:07:49.242Z,8.64
2019-02-11T12:10:18.054Z,8.54
2019-02-11T12:12:47.497Z,8.49
2019-02-11T12:15:17.750Z,8.66
2019-02-11T12:17:47.070Z,8.94
2019-02-11T12:20:15.894Z,9.26
2019-02-11T12:22:44.703Z,9.45
2019-02-11T12:25:14.346Z,9.54
2019-02-11T12:27:43.112Z,9.72
2019-02-11T12:30:14.331Z,9.86
2019-02-11T12:32:43.240Z,9.87
2019-02-11T12:35:12.661Z,10.13
2019-02-11T12:37:41.463Z,10.31
2019-02-11T12:40:10.507Z,10.31
2019-02-11T12:42:39.280Z,10.29
2019-02-11T12:45:10.650Z,10.37
2019-02-11T12:47:40.267Z,10.61
2019-02-11T12:50:10.169Z,10.71
2019-02-11T12:52:43.063Z,10.69
2019-02-11T12:55:12.680Z,10.89
2019-02-11T12:57:41.455Z,10.90
2019-02-11T13:00:16.873Z,10.68
2019-02-11T13:02:42.555Z,10.48
2019-02-11T13:05:11.674Z,10.02
2019-02-11T13:07:40.526Z,9.71
2019-02-11T13:10:09.837Z,9.63
2019-02-11T13:12:39.747Z,9.64
2019-02-11T13:15:07.624Z,9.58
2019-02-11T13:17:37.125Z,9.54
2019-02-11T13:20:10.023Z,9.60
2019-02-11T13:22:35.987Z,9.75
2019-02-11T13:25:08.005Z,9.70
2019-02-11T13:27:35.301Z,9.65
2019-02-11T13:30:04.591Z,9.79
2019-02-11T13:32:33.436Z,9.93
2019-02-11T13:35:02.313Z,10.10
2019-02-11T13:37:33.194Z,10.23
2019-02-11T13:40:02.021Z,10.24
2019-02-11T13:42:30.876Z,10.20
2019-02-11T13:45:00.557Z,10.02
2019-02-11T13:47:29.024Z,9.93
2019-02-11T13:49:57.835Z,9.98
2019-02-11T13:52:27.381Z,10.03
2019-02-11T13:54:56.175Z,9.79
2019-02-11T13:57:24.956Z,9.64
2019-02-11T13:59:53.824Z,9.69
2019-02-11T14:02:22.751Z,9.86
2019-02-11T14:04:52.428Z,9.98
2019-02-11T14:07:21.201Z,10.05
2019-02-11T14:09:49.980Z,10.09
2019-02-11T14:12:18.814Z,10.07
2019-02-11T14:14:48.272Z,10.01
2019-02-11T14:17:18.657Z,10.03
2019-02-11T14:19:47.440Z,10.03
2019-02-11T14:22:16.261Z,10.11
2019-02-11T14:24:45.145Z,10.06
2019-02-11T14:27:15.338Z,10.00
2019-02-11T14:29:45.465Z,9.84
2019-02-11T14:32:14.395Z,9.79
2019-02-11T14:34:43.187Z,9.83
2019-02-11T14:37:12.041Z,9.84
2019-02-11T14:39:41.347Z,9.78
2019-02-11T14:42:14.470Z,9.82
2019-02-11T14:44:40.045Z,9.90
2019-02-11T14:47:08.834Z,9.91
2019-02-11T14:49:37.720Z,9.98
2019-02-11T14:52:07.309Z,10.06
2019-02-11T14:54:36.151Z,10.13
2019-02-11T14:57:06.819Z,10.01
2019-02-11T14:59:35.631Z,10.06
2019-02-11T15:04:40.316Z,10.25
2019-02-11T15:07:09.779Z,10.11
2019-02-11T15:09:38.615Z,9.87
2019-02-11T15:12:07.414Z,9.65
2019-02-11T15:14:36.250Z,9.52
2019-02-11T15:17:05.751Z,9.31
2019-02-11T15:19:34.701Z,9.23
2019-02-11T15:22:05.230Z,9.04
2019-02-11T15:24:34.054Z,9.00
2019-02-11T15:27:02.840Z,8.92
2019-02-11T15:29:32.225Z,8.76
2019-02-11T15:32:01.144Z,8.59
2019-02-11T15:34:30.528Z,8.43
2019-02-11T15:36:59.382Z,8.31
2019-02-11T15:39:28.315Z,8.24
2019-02-11T15:41:57.124Z,8.25
2019-02-11T15:44:26.899Z,8.23
2019-02-11T15:46:56.993Z,8.24
2019-02-11T15:49:25.767Z,8.26
2019-02-11T15:51:54.582Z,8.26
2019-02-11T15:54:25.570Z,8.28
2019-02-11T15:56:54.346Z,8.35
2019-02-11T15:59:24.284Z,8.39
2019-02-11T16:01:53.127Z,8.33
2019-02-11T16:04:21.948Z,8.16
2019-02-11T16:06:50.758Z,8.03
2019-02-11T16:09:20.360Z,7.91
2019-02-11T16:11:49.643Z,7.75
2019-02-11T16:14:18.517Z,7.62
2019-02-11T16:16:47.395Z,7.47
2019-02-11T16:19:17.148Z,7.36
2019-02-11T16:21:45.953Z,7.27
2019-02-11T16:24:14.961Z,7.18
2019-02-11T16:26:43.811Z,7.05
2019-02-11T16:29:12.608Z,6.96
2019-02-11T16:31:41.446Z,6.90
2019-02-11T16:34:10.711Z,6.82
2019-02-11T16:36:39.553Z,6.72
2019-02-11T16:39:08.432Z,6.70
2019-02-11T16:41:37.597Z,6.71
2019-02-11T16:44:06.378Z,6.75
2019-02-11T16:46:35.307Z,6.75
2019-02-11T16:49:04.106Z,6.75
2019-02-11T16:51:32.874Z,6.70
2019-02-11T16:54:01.733Z,6.67
2019-02-11T16:56:31.880Z,6.66
2019-02-11T16:59:00.726Z,6.65
2019-02-11T17:01:30.247Z,6.62
2019-02-11T17:03:59.116Z,6.53
2019-02-11T17:06:28.595Z,6.39
2019-02-11T17:08:59.062Z,6.27
2019-02-11T17:11:28.531Z,6.20
2019-02-11T17:13:59.361Z,6.13
2019-02-11T17:16:28.209Z,6.03
2019-02-11T17:18:57.977Z,5.98
2019-02-11T17:21:27.008Z,5.92
2019-02-11T17:23:56.453Z,5.86
2019-02-11T17:26:26.252Z,5.77
2019-02-11T17:28:55.056Z,5.70
2019-02-11T17:31:23.867Z,5.63
2019-02-11T17:33:53.862Z,5.55
2019-02-11T17:36:23.456Z,5.50
2019-02-11T17:38:52.328Z,5.50
2019-02-11T17:41:21.726Z,5.42
2019-02-11T17:43:50.793Z,5.36
2019-02-11T17:46:20.159Z,5.31
2019-02-11T17:48:49.091Z,5.26
2019-02-11T17:51:21.657Z,5.21
2019-02-11T17:53:51.522Z,5.16
2019-02-11T17:56:20.364Z,5.12
2019-02-11T17:58:49.210Z,5.08
2019-02-11T18:01:18.116Z,5.03
2019-02-11T18:03:48.071Z,4.97
2019-02-11T18:06:17.734Z,4.93
2019-02-11T18:08:46.517Z,4.89
2019-02-11T18:11:15.344Z,4.86
2019-02-11T18:13:44.358Z,4.85
2019-02-11T18:16:13.112Z,4.84
2019-02-11T18:18:43.363Z,4.84
2019-02-11T18:21:12.284Z,4.81
2019-02-11T18:23:41.135Z,4.79
2019-02-11T18:26:09.972Z,4.75
2019-02-11T18:28:40.359Z,4.73
2019-02-11T18:31:09.139Z,4.70
2019-02-11T18:33:38.044Z,4.70
2019-02-11T18:36:07.455Z,4.69
2019-02-11T18:38:36.283Z,4.68
2019-02-11T18:41:05.179Z,4.67
2019-02-11T18:43:34.131Z,4.63
2019-02-11T18:46:02.920Z,4.56
2019-02-11T18:48:31.702Z,4.49
2019-02-11T18:51:00.583Z,4.42
2019-02-11T18:53:29.967Z,4.37
2019-02-11T18:55:58.754Z,4.28
2019-02-11T18:58:27.515Z,4.21
2019-02-11T19:00:56.311Z,4.16
2019-02-11T19:03:25.099Z,4.15
2019-02-11T19:05:53.930Z,4.15
2019-02-11T19:08:22.775Z,4.14
2019-02-11T19:10:51.634Z,4.10
2019-02-11T19:13:20.571Z,4.05
2019-02-11T19:15:49.348Z,3.97
2019-02-11T19:18:18.138Z,3.94
2019-02-11T19:20:47.010Z,3.86
2019-02-11T19:23:15.826Z,3.82
2019-02-11T19:25:44.667Z,3.77
2019-02-11T19:28:14.002Z,3.75
2019-02-11T19:30:42.934Z,3.71
2019-02-11T19:33:11.871Z,3.70
2019-02-11T19:35:41.007Z,3.73
2019-02-11T19:38:09.786Z,3.77
2019-02-11T19:40:38.912Z,3.77
2019-02-11T19:43:07.923Z,3.74
2019-02-11T19:45:37.333Z,3.71
2019-02-11T19:48:06.111Z,3.64
2019-02-11T19:50:34.943Z,3.58
2019-02-11T19:53:03.819Z,3.52
2019-02-11T19:55:32.663Z,3.47
2019-02-11T19:58:01.510Z,3.41
2019-02-11T20:00:31.864Z,3.37
2019-02-11T20:02:59.192Z,3.32
2019-02-11T20:05:28.007Z,3.28
2019-02-11T20:07:58.079Z,3.25
2019-02-11T20:10:26.853Z,3.21
2019-02-11T20:12:55.784Z,3.16
2019-02-11T20:15:24.764Z,3.12
2019-02-11T20:17:54.239Z,3.09
2019-02-11T20:20:23.187Z,3.06
2019-02-11T20:22:51.996Z,3.03
2019-02-11T20:25:22.532Z,2.99
2019-02-11T20:27:51.366Z,2.95
2019-02-11T20:30:22.340Z,2.93
2019-02-11T20:32:51.775Z,2.90
2019-02-11T20:35:21.638Z,2.87
2019-02-11T20:37:51.557Z,2.86
2019-02-11T20:40:22.183Z,2.82
2019-02-11T20:42:52.273Z,2.80
2019-02-11T20:45:23.337Z,2.77
2019-02-11T20:47:52.146Z,2.77
2019-02-11T20:50:22.633Z,2.78
2019-02-11T20:52:52.791Z,2.77
2019-02-11T20:55:22.205Z,2.77
2019-02-11T20:57:52.241Z,2.78
2019-02-11T21:00:22.792Z,2.78
2019-02-11T21:02:51.609Z,2.76
2019-02-11T21:05:21.676Z,2.72
2019-02-11T21:07:50.462Z,2.70
2019-02-11T21:10:19.404Z,2.66
2019-02-11T21:12:48.171Z,2.59
2019-02-11T21:15:16.989Z,2.56
2019-02-11T21:17:46.214Z,2.51
2019-02-11T21:20:18.738Z,2.48
2019-02-11T21:22:47.642Z,2.44
2019-02-11T21:25:16.517Z,2.41
2019-02-11T21:27:46.949Z,2.38
2019-02-11T21:30:15.795Z,2.34
2019-02-11T21:32:45.273Z,2.31
2019-02-11T21:35:14.644Z,2.30
2019-02-11T21:37:43.582Z,2.26
2019-02-11T21:40:12.366Z,2.24
2019-02-11T21:42:41.195Z,2.21
2019-02-11T21:45:10.686Z,2.18
2019-02-11T21:47:39.518Z,2.14
2019-02-11T21:50:09.966Z,2.13
2019-02-11T21:52:39.417Z,2.11
2019-02-11T21:55:10.563Z,2.08
2019-02-11T21:57:40.379Z,2.07
2019-02-11T22:00:12.358Z,2.03
2019-02-11T22:02:41.851Z,2.01
2019-02-11T22:05:10.628Z,2.00
2019-02-11T22:07:40.611Z,1.97
2019-02-11T22:10:11.381Z,1.95
2019-02-11T22:12:40.213Z,1.93
2019-02-11T22:15:09.712Z,1.92
2019-02-11T22:17:39.373Z,1.89
2019-02-11T22:20:10.303Z,1.88
2019-02-11T22:22:39.091Z,1.86
2019-02-11T22:25:08.743Z,1.85
2019-02-11T22:27:37.587Z,1.82
2019-02-11T22:30:08.481Z,1.83
2019-02-11T22:32:38.519Z,1.80
2019-02-11T22:35:08.205Z,1.79
2019-02-11T22:37:37.702Z,1.78
2019-02-11T22:40:07.504Z,1.78
2019-02-11T22:42:36.303Z,1.75
2019-02-11T22:45:05.408Z,1.73
2019-02-11T22:47:34.394Z,1.72
2019-02-11T22:50:04.896Z,1.70
2019-02-11T22:52:33.770Z,1.68
2019-02-11T22:55:02.607Z,1.65
2019-02-11T22:57:31.479Z,1.63
2019-02-11T23:00:01.199Z,1.61
2019-02-11T23:02:30.667Z,1.58
2019-02-11T23:04:59.540Z,1.55
2019-02-11T23:07:28.370Z,1.53
2019-02-11T23:09:57.772Z,1.50
2019-02-11T23:12:27.072Z,1.48
2019-02-11T23:14:55.868Z,1.45
2019-02-11T23:17:25.263Z,1.44
2019-02-11T23:19:54.079Z,1.42
2019-02-11T23:22:23.354Z,1.42
2019-02-11T23:24:52.087Z,1.42
2019-02-11T23:27:20.872Z,1.42
2019-02-11T23:29:50.103Z,1.45
2019-02-11T23:32:18.876Z,1.47
2019-02-11T23:34:49.200Z,1.48
2019-02-11T23:37:18.014Z,1.49
2019-02-11T23:39:47.932Z,1.48
2019-02-11T23:42:17.203Z,1.46
2019-02-11T23:44:45.967Z,1.44
2019-02-11T23:47:15.698Z,1.40
2019-02-11T23:49:44.775Z,1.36
2019-02-11T23:52:13.652Z,1.33
2019-02-11T23:54:44.156Z,1.30
2019-02-11T23:57:12.945Z,1.27
2019-02-11T23:59:41.719Z,1.27
